Hovedside
METAR-TAF:

METAR-TAF

Lufthavner :

Røst lufthavn

Røst, Norge

breddegrad: 67-31N, lengdegrad: 012-06E, høyde over havet: 4 m

Gjeldene værobservasjon

Denne rapporten ble laget for 4 timer og 20 minutter siden, klokken 14:50 UTC
Vind 26 kt fra Sør-sørvest med vindkast opp mot 36 kt
Temperatur 9°C
Luftfuktighet 87%
Trykk 1011 hPa
Sikt 10 km eller mer
Overskyet i en høyde av 1100 ft
lette regnbyger

METAR: ENRS 201450Z 20026G36KT 9999 -SHRA OVC011 09/07 Q1011

Tid: 21:10 (19:10 UTC)


TAF: fraværende

Værobservasjoner og værvarsel for over 4000 flyplasser (METAR- og TAF-rapporter).

Tilgjengelige stasjoner er representert av de røde og gule prikkene på kartet.

Hold musepekeren over prikken for å se navnet på stasjonen.

Klikk så for å se værobservasjoner og -varsler.

For å forandre kartet kan du klikke på den grønne knappen med svart kryss for å zoome inn, på den grønne knappen med strek for å zoome ut, eller på de grønne pilene for å se tilstøtende kart.


METAR-TAF: